Time;durP1;ratioP1;P1;durP2;ratioP2;P2;SDS_P1;SDS_P2;PMS_P1;PMS_P2;Temp;Humidity;BMP_temperature;BMP_pressure;BME280_temperature;BME280_humidity;BME280_pressure;Samples;Min_cycle;Max_cycle;Signal;HPM_P1;HPM_P2
2022/12/12 00:00:19;;;;;;;0.30;0.30;;;;;;;-1.40;100.00;98988.31;6126296;23;20018;-92
2022/12/12 00:02:44;;;;;;;0.43;0.38;;;;;;;-1.49;100.00;98977.00;6126289;23;20428;-91
2022/12/12 00:05:15;;;;;;;0.47;0.47;;;;;;;-1.28;100.00;99000.78;6121184;23;20085;-92
2022/12/12 00:07:40;;;;;;;0.08;0.08;;;;;;;-1.54;100.00;98955.63;6121224;23;20187;-92
2022/12/12 00:10:07;;;;;;;0.77;0.77;;;;;;;-1.46;100.00;98973.53;6147645;23;20519;-90
2022/12/12 00:12:33;;;;;;;1.15;1.08;;;;;;;-1.57;100.00;98964.53;6098260;23;20089;-92
2022/12/12 00:14:58;;;;;;;0.20;0.20;;;;;;;-1.54;100.00;98966.50;6121777;23;20033;-93
2022/12/12 00:17:24;;;;;;;0.85;0.40;;;;;;;-1.53;100.00;98973.47;6073263;23;20475;-92
2022/12/12 00:19:49;;;;;;;1.02;1.02;;;;;;;-1.61;100.00;98955.56;6119571;23;20002;-92
2022/12/12 00:22:15;;;;;;;1.15;1.05;;;;;;;-1.51;100.00;98976.63;6097774;23;20025;-92
2022/12/12 00:24:40;;;;;;;0.80;0.80;;;;;;;-1.60;100.00;98960.66;6121863;23;20002;-93
2022/12/12 00:27:06;;;;;;;0.25;0.20;;;;;;;-1.57;100.00;98968.03;6096666;23;20037;-93
2022/12/12 00:29:31;;;;;;;0.50;0.50;;;;;;;-1.54;100.00;98988.25;6097226;23;20017;-92
2022/12/12 00:31:57;;;;;;;1.95;1.85;;;;;;;-1.44;100.00;99010.06;6085948;23;20014;-92
2022/12/12 00:34:23;;;;;;;1.80;1.15;;;;;;;-1.46;100.00;99006.97;6119467;23;20073;-90
2022/12/12 00:36:50;;;;;;;3.13;1.48;;;;;;;-1.55;100.00;99005.72;6122752;23;20452;-92
2022/12/12 00:39:16;;;;;;;0.43;0.43;;;;;;;-1.47;100.00;99023.66;6121642;23;20018;-92
2022/12/12 00:41:42;;;;;;;1.27;0.95;;;;;;;-1.43;100.00;99021.72;6073236;23;20096;-92
2022/12/12 00:44:08;;;;;;;0.45;0.45;;;;;;;-1.39;100.00;99036.13;6096448;23;20010;-91
2022/12/12 00:46:34;;;;;;;3.70;0.90;;;;;;;-1.50;100.00;99027.91;6120686;23;20021;-92
2022/12/12 00:49:00;;;;;;;0.20;0.20;;;;;;;-1.39;100.00;99049.72;6097189;23;20353;-92
2022/12/12 00:51:26;;;;;;;1.23;0.60;;;;;;;-1.58;100.00;99011.94;6145547;23;20025;-92
2022/12/12 00:53:54;;;;;;;0.17;0.17;;;;;;;-1.51;100.00;99031.00;6097812;23;20013;-93
2022/12/12 00:56:21;;;;;;;0.52;0.35;;;;;;;-1.40;100.00;99042.72;6121446;23;20010;-92
2022/12/12 00:58:47;;;;;;;0.15;0.15;;;;;;;-1.61;100.00;99021.63;6049619;23;20009;-91
2022/12/12 01:01:20;;;;;;;0.03;0.03;;;;;;;-1.53;100.00;99044.19;6097517;23;20021;-93
2022/12/12 01:03:46;;;;;;;0.47;0.47;;;;;;;-1.41;100.00;99052.81;6145393;23;20100;-92
2022/12/12 01:06:12;;;;;;;0.00;0.00;;;;;;;-1.57;100.00;99030.56;6079574;23;20021;-91
2022/12/12 01:08:38;;;;;;;1.33;1.23;;;;;;;-1.62;100.00;99033.69;6127744;23;20096;-92
2022/12/12 01:11:07;;;;;;;0.55;0.55;;;;;;;-1.55;100.00;99046.53;6152354;23;20348;-93
2022/12/12 01:13:33;;;;;;;0.20;0.20;;;;;;;-1.58;100.00;99058.16;6151710;23;20038;-94
2022/12/12 01:15:59;;;;;;;0.20;0.20;;;;;;;-1.56;100.00;99059.34;6151023;23;20743;-93
2022/12/12 01:18:24;;;;;;;1.40;0.98;;;;;;;-1.62;100.00;99049.22;6127084;23;20061;-92
2022/12/12 01:20:51;;;;;;;2.00;0.85;;;;;;;-1.61;100.00;99064.34;6151972;23;20017;-94
2022/12/12 01:23:16;;;;;;;4.53;2.33;;;;;;;-1.79;100.00;99041.72;6102837;23;20014;-93
2022/12/12 01:25:42;;;;;;;0.95;0.95;;;;;;;-1.73;100.00;99048.34;6103113;23;20566;-91
2022/12/12 01:28:08;;;;;;;0.80;0.70;;;;;;;-1.69;100.00;99054.59;6128101;23;20022;-92
2022/12/12 01:30:33;;;;;;;0.93;0.93;;;;;;;-2.03;100.00;99008.56;6127887;23;20081;-94
2022/12/12 01:32:59;;;;;;;1.95;1.65;;;;;;;-1.71;100.00;99044.09;6127738;23;20018;-95
2022/12/12 01:35:25;;;;;;;0.00;0.00;;;;;;;-1.72;100.00;99063.50;6127557;23;20013;-92
2022/12/12 01:37:51;;;;;;;1.38;1.27;;;;;;;-1.86;100.00;99038.97;6152697;23;20014;-94
2022/12/12 01:40:19;;;;;;;2.42;1.30;;;;;;;-1.90;100.00;99036.22;6103344;23;20013;-92
2022/12/12 01:42:45;;;;;;;1.35;1.00;;;;;;;-1.71;100.00;99062.34;6152040;23;20355;-94
2022/12/12 01:45:48;;;;;;;0.20;0.20;;;;;;;-1.67;100.00;99065.88;6127589;23;20044;-93
2022/12/12 01:48:14;;;;;;;0.45;0.45;;;;;;;-1.74;100.00;99060.41;6127769;23;20025;-92
2022/12/12 01:50:41;;;;;;;0.10;0.10;;;;;;;-1.66;100.00;99072.88;6127033;23;20017;-89
2022/12/12 01:53:07;;;;;;;0.47;0.47;;;;;;;-1.70;100.00;99063.91;6127595;23;20108;-92
2022/12/12 01:55:32;;;;;;;0.00;0.00;;;;;;;-1.67;100.00;99071.31;6103351;23;20376;-93
2022/12/12 01:57:58;;;;;;;0.00;0.00;;;;;;;-1.76;100.00;99062.69;6127449;23;20455;-93
2022/12/12 02:00:23;;;;;;;0.63;0.63;;;;;;;-1.74;100.00;99065.84;6152058;23;20100;-93
2022/12/12 02:02:50;;;;;;;0.10;0.10;;;;;;;-1.86;100.00;99047.13;6127057;23;20009;-92
2022/12/12 02:05:30;;;;;;;0.00;0.00;;;;;;;-1.68;100.00;99070.53;6127574;23;20025;-92
2022/12/12 02:08:00;;;;;;;0.98;0.98;;;;;;;-1.69;100.00;99066.25;6103111;23;20021;-93
2022/12/12 02:10:26;;;;;;;0.80;0.63;;;;;;;-1.79;100.00;99063.47;6127951;23;20049;-92
2022/12/12 02:13:06;;;;;;;0.17;0.17;;;;;;;-1.90;100.00;99056.00;6128595;23;20013;-93
2022/12/12 02:16:04;;;;;;;2.10;0.82;;;;;;;-1.89;100.00;99052.13;6127532;23;20026;-92
2022/12/12 02:18:36;;;;;;;0.30;0.30;;;;;;;-1.72;100.00;99085.25;6115331;23;20347;-92
2022/12/12 02:21:35;;;;;;;0.30;0.30;;;;;;;-1.78;100.00;99075.91;6103398;23;20045;-93
2022/12/12 02:24:13;;;;;;;0.03;0.03;;;;;;;-1.76;100.00;99085.22;6127076;23;20021;-93
2022/12/12 02:27:00;;;;;;;0.10;0.10;;;;;;;-1.77;100.00;99093.75;6103048;23;20025;-92
2022/12/12 02:29:35;;;;;;;0.75;0.60;;;;;;;-1.72;100.00;99090.69;6103337;23;20028;-92
2022/12/12 02:32:45;;;;;;;0.65;0.65;;;;;;;-1.73;100.00;99089.13;6150702;23;20014;-90
2022/12/12 02:35:31;;;;;;;0.00;0.00;;;;;;;-1.70;100.00;99091.91;6108629;23;20025;-90
2022/12/12 02:38:16;;;;;;;1.05;1.02;;;;;;;-1.86;100.00;99055.25;6150331;23;20435;-90
2022/12/12 02:40:46;;;;;;;0.20;0.20;;;;;;;-1.65;100.00;99088.78;6101922;23;20040;-89
2022/12/12 02:43:16;;;;;;;0.30;0.30;;;;;;;-1.72;100.00;99079.81;6150936;23;20428;-89
2022/12/12 02:45:48;;;;;;;0.82;0.82;;;;;;;-1.68;100.00;99084.13;6125874;23;20109;-90
2022/12/12 02:48:31;;;;;;;1.83;1.13;;;;;;;-1.69;100.00;99081.78;6126664;23;20104;-89
2022/12/12 02:50:58;;;;;;;0.65;0.65;;;;;;;-1.72;100.00;99085.25;6102689;23;20076;-90
2022/12/12 02:53:23;;;;;;;5.95;1.33;;;;;;;-1.96;100.00;99052.09;6125266;23;20024;-90
2022/12/12 02:56:25;;;;;;;0.10;0.10;;;;;;;-1.73;100.00;99100.00;6099292;23;20108;-90
2022/12/12 02:58:51;;;;;;;0.57;0.47;;;;;;;-1.95;100.00;99083.56;6115412;23;20325;-90
2022/12/12 03:01:29;;;;;;;0.20;0.20;;;;;;;-1.81;100.00;99115.47;6123471;23;20013;-89
2022/12/12 03:10:08;;;;;;;2.08;1.98;;;;;;;-1.95;100.00;99120.81;6149723;23;20056;-89
2022/12/12 03:13:11;;;;;;;0.17;0.17;;;;;;;-2.09;100.00;99105.16;6123348;23;20474;-90
2022/12/12 03:15:46;;;;;;;0.08;0.08;;;;;;;-1.88;100.00;99132.53;6074538;23;20863;-90
2022/12/12 03:18:30;;;;;;;3.40;1.00;;;;;;;-1.92;100.00;99130.94;6124277;23;20013;-89
2022/12/12 03:21:00;;;;;;;;;;;;;;;-1.88;100.00;99132.53;6125892;23;20017;-90
2022/12/12 03:23:51;;;;;;;6.72;1.17;;;;;;;-1.98;100.00;99110.69;6074273;23;19991;-90
2022/12/12 03:26:23;;;;;;;0.10;0.10;;;;;;;-1.92;100.00;99129.00;6102382;23;20010;-89
2022/12/12 03:28:56;;;;;;;0.27;0.27;;;;;;;-1.90;100.00;99132.09;6145453;23;20021;-89
2022/12/12 03:31:25;;;;;;;1.05;1.02;;;;;;;-1.89;100.00;99143.75;6100345;23;20026;-89
2022/12/12 03:33:58;;;;;;;0.00;0.00;;;;;;;-1.90;100.00;99140.25;6122878;23;20519;-89
2022/12/12 03:36:32;;;;;;;0.08;0.08;;;;;;;-1.95;100.00;99127.03;6100961;23;20017;-90
2022/12/12 03:39:05;;;;;;;0.90;0.68;;;;;;;-1.86;100.00;99117.78;6126043;23;20017;-90
2022/12/12 03:41:38;;;;;;;0.20;0.20;;;;;;;-1.91;100.00;99137.94;6150472;23;20456;-89
2022/12/12 03:44:09;;;;;;;;;;;;;;;-1.85;100.00;99136.41;6150364;23;20429;-90
2022/12/12 03:46:41;;;;;;;1.08;0.82;;;;;;;-1.99;100.00;99120.78;6102091;23;19924;-89
2022/12/12 03:49:13;;;;;;;0.70;0.40;;;;;;;-1.88;100.00;99154.28;6150889;23;20424;-90
2022/12/12 03:51:42;;;;;;;1.17;1.08;;;;;;;-1.95;100.00;99137.91;6128026;23;20020;-89
2022/12/12 03:54:20;;;;;;;1.70;0.73;;;;;;;-1.95;100.00;99148.00;6102262;23;20523;-90
2022/12/12 03:56:53;;;;;;;0.17;0.17;;;;;;;-1.93;100.00;99151.88;6103548;23;20618;-90
2022/12/12 03:59:23;;;;;;;0.00;0.00;;;;;;;-2.08;100.00;99131.19;6103396;23;20495;-89
2022/12/12 04:01:54;;;;;;;0.08;0.08;;;;;;;-2.21;100.00;99104.66;6127669;23;20333;-89
2022/12/12 04:04:30;;;;;;;0.75;0.75;;;;;;;-2.06;100.00;99126.13;6100299;23;20021;-90
2022/12/12 04:07:01;;;;;;;0.43;0.43;;;;;;;-2.03;100.00;99147.16;6125798;23;20026;-90
2022/12/12 04:15:25;;;;;;;0.10;0.10;;;;;;;-2.13;100.00;99147.03;6105938;23;20041;-89
2022/12/12 04:18:29;;;;;;;0.85;0.80;;;;;;;-2.04;100.00;99156.44;6101449;23;20017;-90
2022/12/12 04:23:49;;;;;;;0.50;0.50;;;;;;;-2.24;100.00;99151.59;6124871;23;20083;-90
2022/12/12 04:26:38;;;;;;;0.85;0.85;;;;;;;-2.26;100.00;99149.22;6125815;23;20029;-89
2022/12/12 04:29:15;;;;;;;2.97;0.52;;;;;;;-2.22;100.00;99160.91;6101330;23;20017;-89
2022/12/12 04:32:21;;;;;;;0.28;0.28;;;;;;;-2.29;100.00;99149.97;6124575;23;20096;-89
2022/12/12 04:34:52;;;;;;;0.10;0.10;;;;;;;-2.31;100.00;99174.03;6125642;23;20013;-89
2022/12/12 04:37:26;;;;;;;0.75;0.75;;;;;;;-2.38;100.00;99157.66;6127338;23;20108;-89
2022/12/12 04:39:54;;;;;;;0.32;0.32;;;;;;;-2.33;100.00;99173.63;6151410;23;20014;-89
2022/12/12 04:42:23;;;;;;;0.05;0.05;;;;;;;-2.57;100.00;99138.81;6127469;23;20012;-92
2022/12/12 04:44:51;;;;;;;0.20;0.20;;;;;;;-2.36;100.00;99169.72;6150298;23;20021;-90
2022/12/12 04:47:18;;;;;;;0.20;0.20;;;;;;;-2.38;100.00;99173.94;6125708;23;20017;-89
2022/12/12 04:49:45;;;;;;;0.47;0.47;;;;;;;-2.45;100.00;99165.72;6099892;23;20015;-89
2022/12/12 04:52:12;;;;;;;2.88;1.55;;;;;;;-2.36;100.00;99172.44;6150595;23;20025;-90
2022/12/12 04:54:49;;;;;;;0.38;0.38;;;;;;;-2.36;100.00;99179.78;6099620;23;20052;-89
2022/12/12 04:57:23;;;;;;;0.20;0.20;;;;;;;-2.40;100.00;99177.03;6150507;23;20108;-90
2022/12/12 04:59:49;;;;;;;0.20;0.20;;;;;;;-2.45;100.00;99173.88;6148980;23;20124;-90
2022/12/12 05:03:02;;;;;;;0.20;0.20;;;;;;;-2.37;100.00;99191.81;6148730;23;20475;-90
2022/12/12 05:05:38;;;;;;;1.92;1.83;;;;;;;-2.39;100.00;99200.34;6083629;23;20032;-89
2022/12/12 05:08:12;;;;;;;0.47;0.47;;;;;;;-2.38;100.00;99179.38;6151210;23;20041;-90
2022/12/12 05:10:43;;;;;;;0.85;0.85;;;;;;;-2.39;100.00;99188.69;6151839;23;20033;-90
2022/12/12 05:13:17;;;;;;;0.20;0.20;;;;;;;-2.30;100.00;99205.47;6100158;23;20420;-91
2022/12/12 05:15:43;;;;;;;0.10;0.10;;;;;;;-2.61;100.00;99143.44;6077105;23;20360;-90
2022/12/12 05:18:10;;;;;;;0.57;0.57;;;;;;;-2.41;100.00;99182.84;6125200;23;20024;-90
2022/12/12 05:20:36;;;;;;;0.28;0.28;;;;;;;-2.60;100.00;99177.56;6149669;23;20009;-93
2022/12/12 05:23:01;;;;;;;0.52;0.47;;;;;;;-2.48;100.00;99193.63;6150511;23;20014;-94
2022/12/12 05:25:27;;;;;;;1.58;1.13;;;;;;;-2.71;100.00;99171.25;6125597;23;20005;-92
2022/12/12 05:27:52;;;;;;;1.13;1.13;;;;;;;-2.65;100.00;99186.03;6151224;23;20009;-93
2022/12/12 05:30:18;;;;;;;1.90;0.52;;;;;;;-2.60;100.00;99200.09;6150669;23;20009;-94
2022/12/12 05:32:43;;;;;;;8.18;1.30;;;;;;;-2.72;100.00;99196.81;6126359;23;20016;-92
2022/12/12 05:35:09;;;;;;;0.10;0.10;;;;;;;-2.72;100.00;99204.97;6126147;23;20020;-92
2022/12/12 05:37:35;;;;;;;0.82;0.82;;;;;;;-2.84;100.00;99211.41;6151404;23;20021;-92
2022/12/12 05:40:04;;;;;;;0.85;0.85;;;;;;;-3.01;100.00;99201.88;6121362;23;20001;-92
2022/12/12 05:42:30;;;;;;;2.35;1.40;;;;;;;-3.08;100.00;99206.41;6097640;23;20021;-92
2022/12/12 05:44:55;;;;;;;0.75;0.55;;;;;;;-3.11;100.00;99213.34;6146679;23;20017;-92
2022/12/12 05:47:21;;;;;;;0.68;0.35;;;;;;;-3.18;100.00;99207.81;6148457;23;20017;-93
2022/12/12 05:49:46;;;;;;;0.30;0.30;;;;;;;-3.33;100.00;99196.00;6127438;23;20088;-95
2022/12/12 05:52:12;;;;;;;3.72;3.53;;;;;;;-3.29;100.00;99220.44;6125201;23;20013;-92
2022/12/12 05:54:39;;;;;;;1.75;1.63;;;;;;;-3.42;100.00;99209.00;6128941;23;20536;-91
2022/12/12 05:57:05;;;;;;;4.38;3.67;;;;;;;-3.55;100.00;99187.88;6129127;23;20018;-93
2022/12/12 05:59:30;;;;;;;0.55;0.55;;;;;;;-3.64;100.00;99180.03;6099540;23;20018;-94
2022/12/12 06:01:56;;;;;;;0.77;0.77;;;;;;;-3.44;100.00;99227.59;6150474;23;20339;-91
2022/12/12 06:04:22;;;;;;;0.82;0.82;;;;;;;-3.55;100.00;99215.75;6145707;23;20029;-92
2022/12/12 06:06:47;;;;;;;0.43;0.43;;;;;;;-3.68;100.00;99206.28;6149003;23;20474;-92
2022/12/12 06:09:14;;;;;;;0.25;0.25;;;;;;;-3.57;100.00;99231.63;6099302;23;20092;-93
2022/12/12 06:11:41;;;;;;;2.00;1.90;;;;;;;-3.68;100.00;99222.53;6148135;23;20022;-92
2022/12/12 06:14:07;;;;;;;0.25;0.25;;;;;;;-3.61;100.00;99238.91;6102382;23;20407;-94
2022/12/12 06:16:33;;;;;;;0.10;0.10;;;;;;;-3.71;100.00;99219.75;6126777;23;20436;-92
2022/12/12 06:18:59;;;;;;;0.20;0.20;;;;;;;-3.74;100.00;99229.41;6148534;23;20351;-90
2022/12/12 06:21:24;;;;;;;0.25;0.20;;;;;;;-3.81;100.00;99227.34;6148951;23;20021;-90
2022/12/12 06:23:50;;;;;;;0.63;0.63;;;;;;;-3.79;100.00;99232.41;6124147;23;20060;-90
2022/12/12 06:26:18;;;;;;;3.72;1.08;;;;;;;-3.71;100.00;99250.34;6099644;23;20352;-90
2022/12/12 06:28:43;;;;;;;0.25;0.25;;;;;;;-3.68;100.00;99251.56;6123467;23;20017;-90
2022/12/12 06:31:10;;;;;;;0.55;0.55;;;;;;;-3.68;100.00;99243.44;6124183;23;20064;-91
2022/12/12 06:33:35;;;;;;;0.65;0.65;;;;;;;-3.70;100.00;99251.91;6096904;23;20136;-90
2022/12/12 06:36:13;;;;;;;1.75;1.60;;;;;;;-3.92;100.00;99226.38;6150072;23;20017;-91
2022/12/12 06:38:39;;;;;;;0.35;0.35;;;;;;;-4.02;100.00;99223.47;6101122;23;20013;-91
2022/12/12 06:41:06;;;;;;;0.38;0.38;;;;;;;-3.90;100.00;99236.84;6126172;23;20013;-90
2022/12/12 06:43:32;;;;;;;0.60;0.60;;;;;;;-3.91;100.00;99246.91;6124853;23;20017;-91
2022/12/12 06:46:11;;;;;;;1.52;1.42;;;;;;;-3.89;100.00;99250.06;6101730;23;20459;-93
2022/12/12 06:48:37;;;;;;;0.32;0.32;;;;;;;-3.82;100.00;99271.06;6126963;23;20018;-93
2022/12/12 06:51:07;;;;;;;0.32;0.32;;;;;;;-3.91;100.00;99268.56;6125321;23;20028;-90
2022/12/12 06:53:33;;;;;;;0.95;0.95;;;;;;;-3.90;100.00;99266.66;6149283;23;20375;-91
2022/12/12 06:55:59;;;;;;;0.73;0.73;;;;;;;-4.20;100.00;99225.84;6124989;23;20010;-90
2022/12/12 06:58:24;;;;;;;1.17;0.55;;;;;;;-4.11;100.00;99242.66;6150114;23;20010;-90
2022/12/12 07:00:51;;;;;;;3.50;2.60;;;;;;;-3.89;100.00;99279.06;6125918;23;20339;-92
2022/12/12 07:03:17;;;;;;;0.30;0.30;;;;;;;-4.02;100.00;99251.34;6126807;23;20387;-90
2022/12/12 07:05:44;;;;;;;0.32;0.32;;;;;;;-4.02;100.00;99240.50;6126060;23;20112;-90
2022/12/12 07:08:09;;;;;;;0.28;0.25;;;;;;;-3.68;100.00;99275.97;6151465;23;20017;-90
2022/12/12 07:10:35;;;;;;;0.17;0.17;;;;;;;-3.52;100.00;99285.56;6101933;23;20018;-90
2022/12/12 07:13:01;;;;;;;0.45;0.45;;;;;;;-3.47;100.00;99279.03;6125649;23;20001;-90
2022/12/12 07:15:26;;;;;;;0.05;0.05;;;;;;;-3.40;100.00;99276.44;6126466;23;20104;-90
2022/12/12 07:17:52;;;;;;;0.75;0.75;;;;;;;-3.30;100.00;99283.97;6151828;23;20032;-92
2022/12/12 07:20:18;;;;;;;0.30;0.30;;;;;;;-3.19;100.00;99279.47;6126571;23;20476;-90
2022/12/12 07:22:44;;;;;;;0.95;0.95;;;;;;;-3.12;100.00;99270.69;6151023;23;20421;-90
2022/12/12 07:25:09;;;;;;;0.43;0.43;;;;;;;-3.08;100.00;99266.88;6153166;23;20017;-90
2022/12/12 07:27:35;;;;;;;0.17;0.17;;;;;;;-2.92;100.00;99269.44;6153920;23;20096;-90
2022/12/12 07:30:01;;;;;;;0.20;0.20;;;;;;;-2.84;100.00;99282.75;6079919;23;20021;-89
2022/12/12 07:32:26;;;;;;;0.35;0.20;;;;;;;-2.70;100.00;99265.09;6104400;23;20013;-91
2022/12/12 07:34:52;;;;;;;2.60;2.10;;;;;;;-2.68;100.00;99258.16;6128566;23;20314;-90
2022/12/12 07:37:18;;;;;;;0.85;0.80;;;;;;;-2.33;100.00;99284.19;6128361;23;20490;-90
2022/12/12 07:39:43;;;;;;;0.10;0.10;;;;;;;-2.54;100.00;99224.97;6127787;23;20017;-90
2022/12/12 07:42:09;;;;;;;0.43;0.43;;;;;;;-2.15;100.00;99280.56;6153578;23;20432;-91
2022/12/12 07:44:34;;;;;;;4.85;2.20;;;;;;;-2.04;100.00;99278.75;6153403;23;20013;-90
2022/12/12 07:47:00;;;;;;;2.00;1.80;;;;;;;-1.98;100.00;99255.50;6153203;23;20013;-90
2022/12/12 07:49:27;;;;;;;1.58;1.48;;;;;;;-1.81;100.00;99288.69;6127540;23;20017;-91
2022/12/12 07:51:53;;;;;;;1.13;0.95;;;;;;;-1.97;100.00;99280.75;6152998;23;20384;-90
2022/12/12 07:54:19;;;;;;;0.68;0.68;;;;;;;-1.79;100.00;99291.81;6128209;23;20017;-91
2022/12/12 07:56:44;;;;;;;5.32;2.22;;;;;;;-1.73;100.00;99279.44;6152704;23;20048;-91
2022/12/12 07:59:10;;;;;;;2.92;1.65;;;;;;;-1.68;100.00;99279.09;6128109;23;20436;-87
2022/12/12 08:01:36;;;;;;;0.93;0.93;;;;;;;-1.46;100.00;99294.50;6127869;23;20495;-90
2022/12/12 08:04:02;;;;;;;0.85;0.85;;;;;;;-1.38;100.00;99290.69;6127445;23;20013;-91
2022/12/12 08:06:27;;;;;;;0.57;0.57;;;;;;;-1.43;100.00;99288.28;6152552;23;20435;-90
2022/12/12 08:08:53;;;;;;;10.68;1.67;;;;;;;-1.39;100.00;99289.09;6127830;23;20009;-91
2022/12/12 08:11:21;;;;;;;0.15;0.15;;;;;;;-1.30;100.00;99286.84;6152923;23;20424;-91
2022/12/12 08:13:49;;;;;;;0.10;0.10;;;;;;;-1.51;100.00;99251.31;6128084;23;20156;-90
2022/12/12 08:16:20;;;;;;;0.35;0.30;;;;;;;-1.27;100.00;99294.25;6128805;23;20018;-91
2022/12/12 08:18:46;;;;;;;1.75;1.13;;;;;;;-1.33;100.00;99295.00;6127016;23;20475;-91
2022/12/12 08:21:13;;;;;;;1.75;1.65;;;;;;;-1.12;100.00;99309.53;6128199;23;20348;-92
2022/12/12 08:23:39;;;;;;;0.85;0.85;;;;;;;-1.07;100.00;99316.59;6101562;23;20010;-91
2022/12/12 08:26:10;;;;;;;0.65;0.65;;;;;;;-1.10;100.00;99299.06;6127703;23;20080;-91
2022/12/12 08:28:36;;;;;;;1.30;1.23;;;;;;;-0.97;100.00;99311.22;6078746;23;20021;-91
2022/12/12 08:31:02;;;;;;;0.30;0.30;;;;;;;-0.81;100.00;99316.41;6128108;23;20022;-90
2022/12/12 08:33:28;;;;;;;2.17;1.95;;;;;;;-0.77;100.00;99311.78;6152082;23;20014;-91
2022/12/12 08:35:53;;;;;;;0.28;0.28;;;;;;;-0.59;100.00;99326.28;6151565;23;20010;-89
2022/12/12 08:38:19;;;;;;;1.15;0.40;;;;;;;-0.52;100.00;99325.53;6127519;23;20044;-88
2022/12/12 08:40:45;;;;;;;1.00;1.00;;;;;;;-0.46;100.00;99313.13;6102346;23;20010;-89
2022/12/12 08:43:11;;;;;;;0.75;0.75;;;;;;;-0.48;100.00;99315.44;6152051;23;20317;-90
2022/12/12 08:45:37;;;;;;;0.22;0.22;;;;;;;-0.58;100.00;99299.81;6152270;23;20096;-89
2022/12/12 08:48:03;;;;;;;0.05;0.05;;;;;;;-0.51;100.00;99310.75;6103233;23;20033;-90
2022/12/12 08:50:29;;;;;;;0.63;0.63;;;;;;;-0.33;100.00;99330.72;6126664;23;20305;-91
2022/12/12 08:52:54;;;;;;;1.00;1.00;;;;;;;-0.53;100.00;99297.53;6103481;23;20024;-88
2022/12/12 08:55:20;;;;;;;0.47;0.47;;;;;;;-0.28;100.00;99327.63;6103134;23;20017;-88
2022/12/12 08:57:46;;;;;;;0.57;0.57;;;;;;;-0.13;100.00;99331.22;6151811;23;20021;-89
2022/12/12 09:00:12;;;;;;;1.77;1.65;;;;;;;-0.24;100.00;99330.38;6079306;23;20508;-89
2022/12/12 09:02:37;;;;;;;1.92;1.65;;;;;;;-0.25;100.00;99315.97;6127020;23;20036;-90
2022/12/12 09:05:03;;;;;;;2.15;1.38;;;;;;;-0.08;100.00;99336.31;6150812;23;20559;-88
2022/12/12 09:07:29;;;;;;;0.77;0.77;;;;;;;0.00;100.00;99329.72;6127141;23;20013;-89
2022/12/12 09:09:55;;;;;;;0.55;0.55;;;;;;;-0.04;100.00;99334.38;6127991;23;20014;-89
2022/12/12 09:12:21;;;;;;;0.20;0.20;;;;;;;0.02;100.00;99342.94;6152062;23;20437;-89
2022/12/12 09:14:46;;;;;;;2.22;0.77;;;;;;;-0.03;100.00;99325.00;6102880;23;20014;-89
2022/12/12 09:17:12;;;;;;;0.75;0.75;;;;;;;-0.09;100.00;99305.53;6152559;23;20108;-87
2022/12/12 09:19:38;;;;;;;0.68;0.60;;;;;;;0.10;100.00;99328.97;6078794;23;20092;-89
2022/12/12 09:22:04;;;;;;;0.40;0.40;;;;;;;0.24;100.00;99352.78;6127706;23;20005;-88
2022/12/12 09:24:29;;;;;;;1.90;0.88;;;;;;;0.23;100.00;99343.03;6101424;23;20463;-87
2022/12/12 09:26:55;;;;;;;1.70;0.70;;;;;;;0.00;100.00;99283.38;6126878;23;20027;-87
2022/12/12 09:29:20;;;;;;;0.73;0.73;;;;;;;0.42;100.00;99342.69;6151126;23;20052;-88
2022/12/12 09:31:46;;;;;;;0.80;0.70;;;;;;;0.39;100.00;99329.84;6154157;23;20013;-87
2022/12/12 09:34:11;;;;;;;1.05;1.05;;;;;;;0.41;100.00;99327.50;6124750;23;20444;-87
2022/12/12 09:36:38;;;;;;;1.25;1.15;;;;;;;0.39;100.00;99324.38;6125201;23;20013;-87
2022/12/12 09:39:03;;;;;;;0.98;0.98;;;;;;;0.54;100.00;99330.66;6150847;23;20515;-87
2022/12/12 09:41:30;;;;;;;0.20;0.20;;;;;;;0.40;100.00;99299.44;6126980;23;20393;-88
2022/12/12 09:44:06;;;;;;;0.28;0.28;;;;;;;0.70;100.00;99331.84;6125555;23;20016;-88
2022/12/12 09:46:54;;;;;;;1.45;1.35;;;;;;;0.83;100.00;99327.56;6149861;23;20018;-87
2022/12/12 09:49:38;;;;;;;0.10;0.10;;;;;;;0.90;100.00;99341.22;6150539;23;20013;-88
2022/12/12 09:52:04;;;;;;;;;;;;;;;0.90;100.00;99335.78;6104001;23;20515;-93
2022/12/12 09:54:30;;;;;;;0.00;0.00;;;;;;;0.78;100.00;99319.78;6104726;23;19934;-95
2022/12/12 09:57:02;;;;;;;0.10;0.10;;;;;;;1.00;100.00;99320.56;6105284;23;20017;-95
2022/12/12 09:59:31;;;;;;;1.15;1.08;;;;;;;1.25;100.00;99331.50;6128623;23;20021;-94
2022/12/12 10:02:26;;;;;;;0.73;0.73;;;;;;;1.35;100.00;99336.94;6152976;23;20013;-94
2022/12/12 10:05:04;;;;;;;4.40;1.60;;;;;;;1.46;100.00;99336.91;6103543;23;20100;-94
2022/12/12 10:07:41;;;;;;;0.85;0.73;;;;;;;1.61;100.00;99338.47;6104156;23;20080;-95
2022/12/12 10:10:20;;;;;;;0.77;0.77;;;;;;;1.72;100.00;99330.22;6153586;23;20014;-94
2022/12/12 10:12:47;;;;;;;5.38;1.58;;;;;;;1.56;100.00;99322.47;6129905;23;20451;-95
2022/12/12 10:15:45;;;;;;;2.35;2.17;;;;;;;1.74;100.00;99333.38;6128606;23;20037;-94
2022/12/12 10:18:22;;;;;;;0.85;0.85;;;;;;;1.78;100.00;99326.69;6123704;23;20084;-96
2022/12/12 10:20:50;;;;;;;0.00;0.00;;;;;;;1.97;100.00;99321.97;6127873;23;20021;-94
2022/12/12 10:23:16;;;;;;;0.95;0.80;;;;;;;2.07;97.75;99332.84;6127527;23;20021;-95
2022/12/12 10:25:52;;;;;;;0.38;0.38;;;;;;;2.13;96.30;99338.69;6126833;23;20109;-89
2022/12/12 10:28:23;;;;;;;0.75;0.63;;;;;;;2.15;91.09;99339.06;6104688;23;20025;-89
2022/12/12 10:31:19;;;;;;;0.10;0.10;;;;;;;2.18;88.12;99327.34;6102060;23;20100;-89
2022/12/12 10:34:05;;;;;;;1.38;1.30;;;;;;;2.39;93.27;99321.00;6101272;23;20433;-88
2022/12/12 10:36:49;;;;;;;0.17;0.17;;;;;;;2.47;89.88;99326.00;6126327;23;20016;-90
2022/12/12 10:39:18;;;;;;;0.35;0.35;;;;;;;2.55;86.99;99324.78;6151103;23;20033;-89
2022/12/12 10:41:49;;;;;;;0.10;0.10;;;;;;;2.64;86.67;99322.41;6126970;23;20025;-88
2022/12/12 10:44:20;;;;;;;1.65;1.27;;;;;;;2.75;88.62;99331.31;6150948;23;20020;-89
2022/12/12 10:47:07;;;;;;;0.40;0.40;;;;;;;2.81;87.10;99321.50;6153746;23;20110;-89
2022/12/12 10:49:33;;;;;;;1.10;1.00;;;;;;;2.79;88.27;99332.06;6150680;23;20451;-89
2022/12/12 10:52:03;;;;;;;0.32;0.32;;;;;;;2.62;82.48;99319.28;6078705;23;20008;-89
2022/12/12 10:54:32;;;;;;;0.82;0.68;;;;;;;2.46;80.16;99282.63;6125887;23;20025;-90
2022/12/12 10:57:07;;;;;;;0.73;0.73;;;;;;;2.63;79.07;99333.75;6126716;23;20451;-90
2022/12/12 10:59:48;;;;;;;0.75;0.55;;;;;;;2.66;76.95;99320.03;6127415;23;20016;-89
2022/12/12 11:02:37;;;;;;;0.55;0.55;;;;;;;2.63;76.33;99326.31;6128775;23;20080;-89
2022/12/12 11:05:09;;;;;;;3.42;1.27;;;;;;;2.67;79.48;99320.84;6095257;23;20085;-89
2022/12/12 11:07:40;;;;;;;0.20;0.20;;;;;;;2.93;81.07;99316.72;6128336;23;20025;-89
2022/12/12 11:10:22;;;;;;;0.15;0.15;;;;;;;3.05;78.85;99330.72;6151709;23;20016;-89
2022/12/12 11:13:09;;;;;;;0.20;0.20;;;;;;;3.09;78.19;99326.00;6104254;23;20021;-89
2022/12/12 11:15:56;;;;;;;2.63;1.77;;;;;;;3.18;74.51;99325.53;6128449;23;20022;-89
2022/12/12 11:18:23;;;;;;;1.23;0.98;;;;;;;3.22;75.94;99315.31;6129014;23;20345;-89
2022/12/12 11:21:05;;;;;;;0.43;0.43;;;;;;;3.45;75.87;99314.69;6152175;23;20073;-89
2022/12/12 11:23:32;;;;;;;0.00;0.00;;;;;;;3.41;60.11;99314.75;6153149;23;20017;-90
2022/12/12 11:26:01;;;;;;;1.17;1.13;;;;;;;3.30;55.64;99300.38;6154820;23;20013;-95
2022/12/12 11:28:30;;;;;;;0.52;0.52;;;;;;;3.36;56.53;99284.25;6130904;23;20018;-94
2022/12/12 11:30:56;;;;;;;0.28;0.28;;;;;;;3.69;58.11;99317.19;6155587;23;20086;-94
2022/12/12 11:33:30;;;;;;;0.17;0.17;;;;;;;3.90;53.55;99309.91;6154949;23;20052;-93
2022/12/12 11:35:56;;;;;;;0.20;0.20;;;;;;;3.99;54.81;99304.72;6130788;23;20013;-95
2022/12/12 11:38:34;;;;;;;0.08;0.08;;;;;;;4.08;59.60;99272.09;6129557;23;20017;-95
2022/12/12 11:41:02;;;;;;;1.38;1.27;;;;;;;4.29;59.65;99301.97;6131133;23;20482;-95
2022/12/12 11:43:30;;;;;;;0.10;0.10;;;;;;;4.19;55.44;99284.47;6128841;23;20343;-89
2022/12/12 11:46:14;;;;;;;0.25;0.25;;;;;;;4.52;58.57;99304.03;6079974;23;20013;-88
2022/12/12 11:48:42;;;;;;;1.20;1.10;;;;;;;4.48;57.91;99304.09;6127299;23;20017;-89
2022/12/12 11:51:09;;;;;;;0.28;0.28;;;;;;;4.43;56.37;99296.31;6128192;23;20379;-89
2022/12/12 11:53:42;;;;;;;1.15;0.85;;;;;;;4.68;52.15;99302.22;6128044;23;20025;-89
2022/12/12 11:56:35;;;;;;;0.00;0.00;;;;;;;4.55;48.13;99308.69;6127923;23;20017;-89
2022/12/12 11:59:07;;;;;;;0.05;0.05;;;;;;;4.56;48.83;99308.28;6127723;23;20025;-89